Trans Exeter — 9HA2572 — position and weather

sailwx.info

Track history (hours):
 
Tides and Currents Weather Stations Pressure Air Temp Water Temp Dewpoint Dewpoint Depression Visibility Wind Speed Wind Dir Waves Ship Positions

Trans Exeter

Last reported at 2014-Nov-28 04:32 UTC. Time now 2014-Nov-29 02:26 UTC.
Position N 35°60' W 005°12'.

Length 118 m; draft 7.2 m.

Type: Ship (hazmat cat C). MMSI: 248908000.

Date/timePositionNaut miles runAvg speedWind from/ knotsBaromVisibWave heightAir tempDewpointWater temp
2014-Nov-28 04:32N 35°60' W 005°12'1211.7
2014-Nov-28 03:29N 36°08' W 005°24'1 0.0
2014-Nov-27 07:33N 36°09' W 005°24'8 7.7
2014-Nov-27 06:33N 36°01' W 005°22'  
2014-Nov-23 15:22N 50°33' E 000°07'1316.0
2014-Nov-23 14:33N 50°37' E 000°26'1515.1
2014-Nov-23 13:33N 50°44' E 000°47'2613.2
2014-Nov-23 11:34N 51°00' E 001°20'1312.6
2014-Nov-23 10:33N 51°09' E 001°35'1514.8
2014-Nov-23 09:33N 51°20' E 001°51'1916.2
2014-Nov-23 08:24N 51°34' E 002°11'1616.2
2014-Nov-23 07:26N 51°46' E 002°27'3214.0
2014-Nov-23 05:11N 52°02' E 003°10'1014.2
2014-Nov-23 04:30N 52°03' E 003°26'1313.6
2014-Nov-23 03:32N 52°04' E 003°48'1111.1
2014-Nov-23 02:33N 51°59' E 004°04'10 9.6
2014-Nov-23 01:34N 51°54' E 004°17'3 2.6
2014-Nov-23 00:33N 51°53' E 004°21'0 0.0
2014-Nov-22 23:30N 51°53' E 004°21'0 0.0
2014-Nov-22 22:30N 51°53' E 004°21'0 0.0
2014-Nov-22 21:30N 51°53' E 004°21'0 0.0
2014-Nov-22 20:26N 51°53' E 004°21'0 0.0
2014-Nov-22 18:32N 51°53' E 004°21'0 0.0
2014-Nov-22 17:17N 51°53' E 004°21'0 0.0
2014-Nov-22 16:32N 51°53' E 004°21'0 0.0
2014-Nov-22 15:11N 51°53' E 004°21'0 0.0
2014-Nov-22 14:23N 51°53' E 004°21'0 0.0
2014-Nov-22 13:14N 51°53' E 004°21'0 0.0
2014-Nov-22 12:29N 51°53' E 004°21'0 0.0
2014-Nov-22 11:32N 51°53' E 004°21'0 0.0
2014-Nov-22 10:32N 51°53' E 004°21'0 0.0
2014-Nov-22 08:32N 51°53' E 004°21'0 0.0
2014-Nov-22 07:32N 51°53' E 004°21'0 0.0
2014-Nov-22 06:20N 51°53' E 004°21'0 0.0
2014-Nov-22 04:26N 51°53' E 004°21'0 0.0
2014-Nov-22 03:26N 51°53' E 004°21'0 0.0
2014-Nov-22 02:26N 51°53' E 004°21'0 0.0
2014-Nov-22 01:32N 51°53' E 004°21'0 0.0
2014-Nov-22 00:20N 51°53' E 004°21'1 1.1
2014-Nov-21 23:33N 51°54' E 004°21'1 1.1
2014-Nov-21 22:27N 51°53' E 004°23'0 0.0
2014-Nov-21 21:33N 51°53' E 004°23'0 0.0
2014-Nov-21 20:30N 51°53' E 004°23'0 0.0
2014-Nov-21 19:21N 51°53' E 004°23'0 0.0
2014-Nov-21 18:32N 51°53' E 004°23'0 0.0
2014-Nov-21 17:32N 51°53' E 004°23'0 0.0
2014-Nov-21 16:26N 51°53' E 004°23'0 0.0
2014-Nov-21 15:29N 51°53' E 004°23'0 0.0
2014-Nov-21 14:29N 51°53' E 004°23'0 0.0
2014-Nov-21 13:20N 51°53' E 004°23'0 0.0
2014-Nov-21 12:32N 51°53' E 004°23'0 0.1
2014-Nov-21 11:33N 51°53' E 004°22'6 5.9
2014-Nov-21 10:33N 51°55' E 004°14'1010.2
2014-Nov-21 09:33N 51°60' E 003°59'8 8.0
2014-Nov-21 08:33N 51°57' E 003°46'0 0.0
2014-Nov-21 06:23N 51°57' E 003°46'0 0.0
2014-Nov-21 05:29N 51°57' E 003°46'0 0.0
2014-Nov-21 04:23N 51°57' E 003°46'0 0.0
2014-Nov-21 03:26N 51°57' E 003°46'0 0.1
2014-Nov-21 02:26N 51°57' E 003°47'0 0.0
2014-Nov-21 01:32N 51°57' E 003°47'8 8.6
2014-Nov-21 00:33N 51°57' E 003°33'1312.9
2014-Nov-20 23:32N 51°48' E 003°17'1111.7
2014-Nov-20 22:33N 51°37' E 003°22'1111.3
2014-Nov-20 21:33N 51°28' E 003°31'9 8.7
2014-Nov-20 20:33N 51°23' E 003°43'9 9.4
2014-Nov-20 19:33N 51°25' E 003°58'10 9.8
2014-Nov-20 18:33N 51°23' E 004°13'3 3.3
2014-Nov-20 17:33N 51°21' E 004°17'1 0.6
2014-Nov-20 16:34N 51°20' E 004°18'2 0.1
2014-Nov-19 12:27N 51°19' E 004°19'2 2.8
2014-Nov-19 11:33N 51°17' E 004°21'2 1.6
2014-Nov-19 10:33N 51°15' E 004°22'0 0.0
2014-Nov-19 09:33N 51°15' E 004°22'0 0.0
2014-Nov-19 08:30N 51°15' E 004°22'0 0.0
2014-Nov-19 07:33N 51°15' E 004°22'0 0.0
2014-Nov-19 06:33N 51°15' E 004°22'0 0.0
2014-Nov-19 05:33N 51°15' E 004°22'0 0.0
2014-Nov-19 04:30N 51°15' E 004°22'0 0.0
2014-Nov-19 03:33N 51°15' E 004°22'0 0.0
2014-Nov-19 02:33N 51°15' E 004°22'0 0.0
2014-Nov-19 01:33N 51°15' E 004°22'0 0.0
2014-Nov-19 00:33N 51°15' E 004°22'0 0.0
2014-Nov-18 23:33N 51°15' E 004°22'0 0.0
2014-Nov-18 22:33N 51°15' E 004°22'0 0.2
2014-Nov-18 21:33N 51°15' E 004°21'1 1.4
2014-Nov-18 20:31N 51°17' E 004°20'0 0.0
2014-Nov-18 19:31N 51°17' E 004°20'0 0.0
2014-Nov-18 18:31N 51°17' E 004°20'0 0.0
2014-Nov-18 17:31N 51°17' E 004°20'0 0.0
2014-Nov-18 16:31N 51°17' E 004°20'0 0.0
2014-Nov-18 15:31N 51°17' E 004°20'0 0.0
2014-Nov-18 14:22N 51°17' E 004°20'0 0.0
2014-Nov-18 13:28N 51°17' E 004°20'0 0.0
2014-Nov-18 12:34N 51°17' E 004°20'0 0.0
2014-Nov-18 11:34N 51°17' E 004°20'0 0.0
2014-Nov-18 10:30N 51°17' E 004°20'0 0.0
2014-Nov-18 09:30N 51°17' E 004°20'0 0.0
2014-Nov-18 08:33N 51°17' E 004°20'0 0.0
2014-Nov-18 07:33N 51°17' E 004°20'0 0.0
2014-Nov-18 06:30N 51°17' E 004°20'0 0.0
2014-Nov-18 05:30N 51°17' E 004°20'0 0.0
2014-Nov-18 04:33N 51°17' E 004°20'  
Track history (hours):
 
Tides and Currents Weather Stations Pressure Air Temp Water Temp Dewpoint Dewpoint Depression Visibility Wind Speed Wind Dir Waves Ship Positions

Trans Exeter

Last reported at 2014-Nov-28 04:32 UTC. Time now 2014-Nov-29 02:26 UTC.
Position N 35°60' W 005°12'.

Length 118 m; draft 7.2 m.

Type: Ship (hazmat cat C). MMSI: 248908000.

Date/timePositionNaut miles runAvg speedWind from/ knotsBaromVisibWave heightAir tempDewpointWater temp
2014-Nov-28 04:32N 35°60' W 005°12'1211.7
2014-Nov-28 03:29N 36°08' W 005°24'1 0.0
2014-Nov-27 07:33N 36°09' W 005°24'8 7.7
2014-Nov-27 06:33N 36°01' W 005°22'  
2014-Nov-23 15:22N 50°33' E 000°07'1316.0
2014-Nov-23 14:33N 50°37' E 000°26'1515.1
2014-Nov-23 13:33N 50°44' E 000°47'2613.2
2014-Nov-23 11:34N 51°00' E 001°20'1312.6
2014-Nov-23 10:33N 51°09' E 001°35'1514.8
2014-Nov-23 09:33N 51°20' E 001°51'1916.2
2014-Nov-23 08:24N 51°34' E 002°11'1616.2
2014-Nov-23 07:26N 51°46' E 002°27'3214.0
2014-Nov-23 05:11N 52°02' E 003°10'1014.2
2014-Nov-23 04:30N 52°03' E 003°26'1313.6
2014-Nov-23 03:32N 52°04' E 003°48'1111.1
2014-Nov-23 02:33N 51°59' E 004°04'10 9.6
2014-Nov-23 01:34N 51°54' E 004°17'3 2.6
2014-Nov-23 00:33N 51°53' E 004°21'0 0.0
2014-Nov-22 23:30N 51°53' E 004°21'0 0.0
2014-Nov-22 22:30N 51°53' E 004°21'0 0.0
2014-Nov-22 21:30N 51°53' E 004°21'0 0.0
2014-Nov-22 20:26N 51°53' E 004°21'0 0.0
2014-Nov-22 18:32N 51°53' E 004°21'0 0.0
2014-Nov-22 17:17N 51°53' E 004°21'0 0.0
2014-Nov-22 16:32N 51°53' E 004°21'0 0.0
2014-Nov-22 15:11N 51°53' E 004°21'0 0.0
2014-Nov-22 14:23N 51°53' E 004°21'0 0.0
2014-Nov-22 13:14N 51°53' E 004°21'0 0.0
2014-Nov-22 12:29N 51°53' E 004°21'0 0.0
2014-Nov-22 11:32N 51°53' E 004°21'0 0.0
2014-Nov-22 10:32N 51°53' E 004°21'0 0.0
2014-Nov-22 08:32N 51°53' E 004°21'0 0.0
2014-Nov-22 07:32N 51°53' E 004°21'0 0.0
2014-Nov-22 06:20N 51°53' E 004°21'0 0.0
2014-Nov-22 04:26N 51°53' E 004°21'0 0.0
2014-Nov-22 03:26N 51°53' E 004°21'0 0.0
2014-Nov-22 02:26N 51°53' E 004°21'0 0.0
2014-Nov-22 01:32N 51°53' E 004°21'0 0.0
2014-Nov-22 00:20N 51°53' E 004°21'1 1.1
2014-Nov-21 23:33N 51°54' E 004°21'1 1.1
2014-Nov-21 22:27N 51°53' E 004°23'0 0.0
2014-Nov-21 21:33N 51°53' E 004°23'0 0.0
2014-Nov-21 20:30N 51°53' E 004°23'0 0.0
2014-Nov-21 19:21N 51°53' E 004°23'0 0.0
2014-Nov-21 18:32N 51°53' E 004°23'0 0.0
2014-Nov-21 17:32N 51°53' E 004°23'0 0.0
2014-Nov-21 16:26N 51°53' E 004°23'0 0.0
2014-Nov-21 15:29N 51°53' E 004°23'0 0.0
2014-Nov-21 14:29N 51°53' E 004°23'0 0.0
2014-Nov-21 13:20N 51°53' E 004°23'0 0.0
2014-Nov-21 12:32N 51°53' E 004°23'0 0.1
2014-Nov-21 11:33N 51°53' E 004°22'6 5.9
2014-Nov-21 10:33N 51°55' E 004°14'1010.2
2014-Nov-21 09:33N 51°60' E 003°59'8 8.0
2014-Nov-21 08:33N 51°57' E 003°46'0 0.0
2014-Nov-21 06:23N 51°57' E 003°46'0 0.0
2014-Nov-21 05:29N 51°57' E 003°46'0 0.0
2014-Nov-21 04:23N 51°57' E 003°46'0 0.0
2014-Nov-21 03:26N 51°57' E 003°46'0 0.1
2014-Nov-21 02:26N 51°57' E 003°47'0 0.0
2014-Nov-21 01:32N 51°57' E 003°47'8 8.6
2014-Nov-21 00:33N 51°57' E 003°33'1312.9
2014-Nov-20 23:32N 51°48' E 003°17'1111.7
2014-Nov-20 22:33N 51°37' E 003°22'1111.3
2014-Nov-20 21:33N 51°28' E 003°31'9 8.7
2014-Nov-20 20:33N 51°23' E 003°43'9 9.4
2014-Nov-20 19:33N 51°25' E 003°58'10 9.8
2014-Nov-20 18:33N 51°23' E 004°13'3 3.3
2014-Nov-20 17:33N 51°21' E 004°17'1 0.6
2014-Nov-20 16:34N 51°20' E 004°18'2 0.1
2014-Nov-19 12:27N 51°19' E 004°19'2 2.8
2014-Nov-19 11:33N 51°17' E 004°21'2 1.6
2014-Nov-19 10:33N 51°15' E 004°22'0 0.0
2014-Nov-19 09:33N 51°15' E 004°22'0 0.0
2014-Nov-19 08:30N 51°15' E 004°22'0 0.0
2014-Nov-19 07:33N 51°15' E 004°22'0 0.0
2014-Nov-19 06:33N 51°15' E 004°22'0 0.0
2014-Nov-19 05:33N 51°15' E 004°22'0 0.0
2014-Nov-19 04:30N 51°15' E 004°22'0 0.0
2014-Nov-19 03:33N 51°15' E 004°22'0 0.0
2014-Nov-19 02:33N 51°15' E 004°22'0 0.0
2014-Nov-19 01:33N 51°15' E 004°22'0 0.0
2014-Nov-19 00:33N 51°15' E 004°22'0 0.0
2014-Nov-18 23:33N 51°15' E 004°22'0 0.0
2014-Nov-18 22:33N 51°15' E 004°22'0 0.2
2014-Nov-18 21:33N 51°15' E 004°21'1 1.4
2014-Nov-18 20:31N 51°17' E 004°20'0 0.0
2014-Nov-18 19:31N 51°17' E 004°20'0 0.0
2014-Nov-18 18:31N 51°17' E 004°20'0 0.0
2014-Nov-18 17:31N 51°17' E 004°20'0 0.0
2014-Nov-18 16:31N 51°17' E 004°20'0 0.0
2014-Nov-18 15:31N 51°17' E 004°20'0 0.0
2014-Nov-18 14:22N 51°17' E 004°20'0 0.0
2014-Nov-18 13:28N 51°17' E 004°20'0 0.0
2014-Nov-18 12:34N 51°17' E 004°20'0 0.0
2014-Nov-18 11:34N 51°17' E 004°20'0 0.0
2014-Nov-18 10:30N 51°17' E 004°20'0 0.0
2014-Nov-18 09:30N 51°17' E 004°20'0 0.0
2014-Nov-18 08:33N 51°17' E 004°20'0 0.0
2014-Nov-18 07:33N 51°17' E 004°20'0 0.0
2014-Nov-18 06:30N 51°17' E 004°20'0 0.0
2014-Nov-18 05:30N 51°17' E 004°20'0 0.0
2014-Nov-18 04:33N 51°17' E 004°20'  

Dump ship's entire track history